Time;durP1;ratioP1;P1;durP2;ratioP2;P2;SDS_P1;SDS_P2;PMS_P1;PMS_P2;Temp;Humidity;BMP_temperature;BMP_pressure;BME280_temperature;BME280_humidity;BME280_pressure;Samples;Min_cycle;Max_cycle;Signal;HPM_P1;HPM_P2
2021/03/18 00:02:05;;;;;;;5.88;1.15;;;3.80;99.90;;;;;;5073448;28;20473;-75
2021/03/18 00:04:31;;;;;;;13.10;2.45;;;3.80;99.90;;;;;;5074956;28;20116;-75
2021/03/18 00:06:57;;;;;;;6.88;1.88;;;3.80;99.90;;;;;;5072645;28;20424;-75
2021/03/18 00:09:23;;;;;;;10.38;1.83;;;3.80;99.90;;;;;;5073367;28;20028;-74
2021/03/18 00:11:51;;;;;;;9.25;2.30;;;3.80;99.90;;;;;;5073491;28;20028;-75
2021/03/18 00:14:20;;;;;;;6.15;1.58;;;3.80;99.90;;;;;;5073987;28;20127;-75
2021/03/18 00:16:46;;;;;;;4.82;1.52;;;3.80;99.90;;;;;;5073737;28;20028;-74
2021/03/18 00:19:11;;;;;;;9.68;2.05;;;3.80;99.90;;;;;;5078819;28;20037;-73
2021/03/18 00:21:38;;;;;;;5.32;2.08;;;3.80;99.90;;;;;;5080536;28;20028;-74
2021/03/18 00:24:04;;;;;;;9.10;1.80;;;3.80;99.90;;;;;;5080800;28;20035;-75
2021/03/18 00:26:32;;;;;;;9.73;2.08;;;3.80;99.90;;;;;;5074360;28;20028;-75
2021/03/18 00:28:59;;;;;;;18.75;2.53;;;3.80;99.90;;;;;;5077040;28;20115;-75
2021/03/18 00:31:28;;;;;;;13.20;1.90;;;3.80;99.90;;;;;;5073169;28;20029;-74
2021/03/18 00:33:53;;;;;;;;;;;3.80;99.90;;;;;;5074932;28;20090;-74
2021/03/18 00:36:19;;;;;;;7.22;1.77;;;3.90;99.90;;;;;;5073547;28;20288;-74
2021/03/18 00:38:46;;;;;;;5.30;1.58;;;3.90;99.90;;;;;;5072798;28;20032;-74
2021/03/18 00:41:13;;;;;;;4.80;1.70;;;3.80;99.90;;;;;;5073938;28;20036;-74
2021/03/18 00:43:42;;;;;;;8.50;1.60;;;3.80;99.90;;;;;;5073342;28;20481;-74
2021/03/18 00:46:08;;;;;;;6.38;2.65;;;3.80;99.90;;;;;;5072390;28;20040;-75
2021/03/18 00:48:35;;;;;;;6.65;1.70;;;3.80;99.90;;;;;;5073461;28;20058;-74
2021/03/18 00:51:04;;;;;;;6.55;1.50;;;3.80;99.90;;;;;;5074263;28;20032;-75
2021/03/18 00:53:39;;;;;;;7.72;1.58;;;3.90;99.90;;;;;;5073252;28;20389;-75
2021/03/18 00:56:08;;;;;;;8.38;2.28;;;3.90;99.90;;;;;;5073207;28;20025;-75
2021/03/18 00:58:35;;;;;;;7.85;1.92;;;4.00;99.90;;;;;;5073324;28;20020;-75
2021/03/18 01:01:03;;;;;;;12.38;2.20;;;4.00;99.90;;;;;;5073250;28;20094;-75
2021/03/18 01:03:32;;;;;;;13.77;2.97;;;4.00;99.90;;;;;;5072768;28;20036;-75
2021/03/18 01:06:05;;;;;;;11.52;1.92;;;4.10;99.90;;;;;;5072663;28;20040;-75
2021/03/18 01:08:31;;;;;;;7.45;1.40;;;4.00;99.90;;;;;;5072404;28;20029;-75
2021/03/18 01:11:05;;;;;;;7.50;2.05;;;4.00;99.90;;;;;;5073064;28;20035;-75
2021/03/18 01:13:33;;;;;;;7.53;2.13;;;3.90;99.90;;;;;;5072355;28;20024;-75
2021/03/18 01:16:11;;;;;;;15.32;2.92;;;3.90;99.90;;;;;;5074044;28;20032;-75
2021/03/18 01:18:39;;;;;;;20.05;2.40;;;3.90;99.90;;;;;;5069264;28;20035;-75
2021/03/18 01:21:06;;;;;;;4.40;1.80;;;3.90;99.90;;;;;;5071931;28;20021;-74
2021/03/18 01:23:32;;;;;;;10.95;2.08;;;3.90;99.90;;;;;;5072748;28;20043;-75
2021/03/18 01:25:58;;;;;;;8.73;2.22;;;4.00;99.90;;;;;;5072182;28;20036;-76
2021/03/18 01:28:24;;;;;;;10.07;2.25;;;4.00;99.90;;;;;;5072846;28;20025;-75
2021/03/18 01:30:51;;;;;;;10.82;2.10;;;4.00;99.90;;;;;;5072758;28;20098;-75
2021/03/18 01:33:16;;;;;;;11.82;2.20;;;3.90;99.90;;;;;;5071318;28;20439;-75
2021/03/18 01:35:42;;;;;;;8.88;2.33;;;3.90;99.90;;;;;;5073091;28;20020;-76
2021/03/18 01:38:07;;;;;;;13.48;2.10;;;3.90;99.90;;;;;;5072426;28;20098;-75
2021/03/18 01:40:33;;;;;;;9.43;1.92;;;3.90;99.90;;;;;;5072520;28;20028;-75
2021/03/18 01:42:59;;;;;;;10.65;3.78;;;3.80;99.90;;;;;;5072068;28;20393;-75
2021/03/18 01:45:25;;;;;;;11.10;2.40;;;3.80;99.90;;;;;;5073574;28;20033;-75
2021/03/18 01:47:54;;;;;;;3.80;1.92;;;3.80;99.90;;;;;;5072902;28;20025;-75
2021/03/18 01:50:23;;;;;;;4.82;2.22;;;3.80;99.90;;;;;;5071895;28;20119;-75
2021/03/18 01:52:48;;;;;;;9.07;1.98;;;3.80;99.90;;;;;;5071946;28;20032;-76
2021/03/18 01:55:28;;;;;;;8.70;1.77;;;3.80;99.90;;;;;;5074429;28;20040;-75
2021/03/18 01:57:54;;;;;;;10.02;1.80;;;3.80;99.90;;;;;;5077383;28;20020;-75
2021/03/18 02:00:21;;;;;;;5.55;2.15;;;3.80;99.90;;;;;;5077456;28;20035;-75
2021/03/18 02:02:46;;;;;;;6.15;2.67;;;3.80;99.90;;;;;;5078874;28;20031;-75
2021/03/18 02:05:12;;;;;;;7.75;2.20;;;3.80;99.90;;;;;;5077102;28;20396;-75
2021/03/18 02:07:39;;;;;;;15.73;2.45;;;3.80;99.90;;;;;;5076262;28;20028;-75
2021/03/18 02:10:06;;;;;;;9.05;2.97;;;3.80;99.90;;;;;;5075958;28;20028;-75
2021/03/18 02:12:31;;;;;;;6.32;1.92;;;3.80;99.90;;;;;;5073634;28;20519;-75
2021/03/18 02:14:58;;;;;;;7.95;2.30;;;3.80;99.90;;;;;;5072011;28;20063;-75
2021/03/18 02:17:30;;;;;;;8.80;2.60;;;3.70;99.90;;;;;;5071397;28;20036;-75
2021/03/18 02:20:29;;;;;;;10.45;3.55;;;3.70;99.90;;;;;;5067653;28;20109;-75
2021/03/18 02:23:23;;;;;;;7.35;2.45;;;3.70;99.90;;;;;;5072210;28;20039;-75
2021/03/18 02:26:07;;;;;;;12.48;2.67;;;3.70;99.90;;;;;;5072557;28;20058;-75
2021/03/18 02:29:29;;;;;;;18.05;3.47;;;3.70;99.90;;;;;;5067758;28;20036;-75
2021/03/18 02:32:13;;;;;;;14.35;3.90;;;3.70;99.90;;;;;;5030286;28;20490;-75
2021/03/18 02:35:03;;;;;;;14.07;2.08;;;3.70;99.90;;;;;;5013239;28;20049;-75
2021/03/18 02:37:31;;;;;;;7.70;2.50;;;3.70;99.90;;;;;;5066285;28;20035;-76
2021/03/18 02:40:03;;;;;;;13.02;2.83;;;3.80;99.90;;;;;;5074640;28;20020;-75
2021/03/18 02:42:33;;;;;;;11.10;3.17;;;3.90;99.90;;;;;;5077001;28;20031;-75
2021/03/18 02:45:00;;;;;;;6.55;3.08;;;4.00;99.90;;;;;;5071606;28;20123;-75
2021/03/18 02:47:30;;;;;;;7.22;2.60;;;4.00;99.90;;;;;;5071109;28;20025;-75
2021/03/18 02:49:58;;;;;;;11.88;2.90;;;4.00;99.90;;;;;;5072503;28;20108;-75
2021/03/18 02:52:25;;;;;;;21.23;2.95;;;4.00;99.90;;;;;;5063362;28;20032;-75
2021/03/18 02:54:56;;;;;;;8.77;2.88;;;4.00;99.90;;;;;;5070670;28;20032;-75
2021/03/18 02:57:24;;;;;;;14.30;3.42;;;4.00;99.90;;;;;;5072047;28;20035;-75
2021/03/18 02:59:51;;;;;;;16.90;3.28;;;4.10;99.90;;;;;;5070361;28;20111;-76
2021/03/18 03:02:21;;;;;;;10.13;4.03;;;4.10;99.90;;;;;;5070810;28;20024;-75
2021/03/18 03:04:47;;;;;;;6.85;2.33;;;4.20;99.90;;;;;;5072335;28;20302;-75
2021/03/18 03:07:14;;;;;;;9.45;2.75;;;4.20;99.90;;;;;;5072571;28;20100;-74
2021/03/18 03:09:45;;;;;;;16.20;3.17;;;4.30;99.90;;;;;;5063711;28;20024;-74
2021/03/18 03:12:13;;;;;;;10.98;2.42;;;4.30;99.90;;;;;;5070744;28;20127;-74
2021/03/18 03:14:41;;;;;;;11.18;3.30;;;4.30;99.90;;;;;;5071599;28;20099;-74
2021/03/18 03:17:07;;;;;;;14.57;3.13;;;4.30;99.90;;;;;;5074989;28;20100;-74
2021/03/18 03:19:38;;;;;;;10.95;3.75;;;4.40;99.90;;;;;;5075335;28;20104;-74
2021/03/18 03:22:05;;;;;;;7.55;2.45;;;4.40;99.90;;;;;;5056134;28;20039;-74
2021/03/18 03:24:35;;;;;;;11.38;3.53;;;4.40;99.90;;;;;;5074607;28;20041;-73
2021/03/18 03:27:02;;;;;;;15.77;4.80;;;4.40;99.90;;;;;;5075271;28;20032;-74
2021/03/18 03:29:29;;;;;;;9.52;2.83;;;4.30;99.90;;;;;;5075540;28;20024;-73
2021/03/18 03:31:55;;;;;;;12.82;3.45;;;4.40;99.90;;;;;;5080706;28;20103;-73
2021/03/18 03:34:21;;;;;;;17.10;3.85;;;4.40;99.90;;;;;;5078869;28;20166;-74
2021/03/18 03:36:47;;;;;;;10.55;2.88;;;4.50;99.90;;;;;;5075048;28;20048;-74
2021/03/18 03:39:15;;;;;;;10.50;5.15;;;4.50;99.90;;;;;;5078985;28;20020;-73
2021/03/18 03:41:42;;;;;;;12.07;4.65;;;4.60;99.90;;;;;;5081446;28;20020;-74
2021/03/18 03:44:08;;;;;;;11.85;3.22;;;4.60;99.90;;;;;;5083724;28;20099;-73
2021/03/18 03:46:34;;;;;;;11.27;3.00;;;4.60;99.90;;;;;;5081716;28;20027;-74
2021/03/18 03:49:01;;;;;;;13.70;4.13;;;4.60;99.90;;;;;;5078570;28;20023;-74
2021/03/18 03:52:04;;;;;;;8.38;4.45;;;4.60;99.90;;;;;;5077477;28;20485;-74
2021/03/18 03:54:32;;;;;;;9.82;3.20;;;4.60;99.90;;;;;;5077197;28;20032;-74
2021/03/18 03:57:01;;;;;;;8.50;4.00;;;4.60;99.90;;;;;;5074762;28;20063;-73
2021/03/18 03:59:30;;;;;;;17.35;3.83;;;4.60;99.90;;;;;;5069916;28;20075;-74
2021/03/18 04:01:56;;;;;;;;;;;4.50;99.90;;;;;;5072941;28;20056;-74
2021/03/18 04:04:29;;;;;;;5.57;2.78;;;4.50;99.90;;;;;;5074400;28;19909;-74
2021/03/18 04:06:59;;;;;;;16.35;3.92;;;4.60;99.90;;;;;;5072458;28;20036;-74
2021/03/18 04:09:28;;;;;;;14.57;4.72;;;4.60;99.90;;;;;;5074393;28;20028;-74
2021/03/18 04:11:55;;;;;;;12.20;3.88;;;4.60;99.90;;;;;;5073784;28;20028;-73
2021/03/18 04:14:26;;;;;;;13.27;3.78;;;4.70;99.90;;;;;;5074201;28;20035;-73
2021/03/18 04:16:52;;;;;;;8.55;3.30;;;4.70;99.90;;;;;;5072526;28;20388;-74
2021/03/18 04:19:19;;;;;;;14.35;3.78;;;4.60;99.90;;;;;;5071909;28;20494;-74
2021/03/18 04:21:48;;;;;;;10.55;3.55;;;4.60;99.90;;;;;;5072831;28;20037;-74
2021/03/18 04:24:14;;;;;;;12.48;3.38;;;4.60;99.90;;;;;;5073766;28;20107;-74
2021/03/18 04:26:41;;;;;;;10.43;3.67;;;4.70;99.90;;;;;;5073320;28;20502;-74
2021/03/18 04:29:08;;;;;;;10.32;3.80;;;4.60;99.90;;;;;;5071577;28;20039;-74
2021/03/18 04:31:37;;;;;;;10.27;3.58;;;4.60;99.90;;;;;;5073485;28;20096;-75
2021/03/18 04:34:05;;;;;;;14.95;3.60;;;4.60;99.90;;;;;;5073279;28;20040;-75
2021/03/18 04:36:32;;;;;;;12.57;4.30;;;4.60;99.90;;;;;;5070488;28;20025;-74
2021/03/18 04:38:59;;;;;;;11.73;3.47;;;4.60;99.90;;;;;;5073276;28;20508;-74
2021/03/18 04:41:26;;;;;;;15.77;4.20;;;4.70;99.90;;;;;;5073737;28;20059;-74
2021/03/18 04:43:53;;;;;;;13.77;6.33;;;4.60;99.90;;;;;;5072357;28;20696;-74
2021/03/18 04:46:19;;;;;;;10.85;3.97;;;4.60;99.90;;;;;;5071931;28;20052;-74
2021/03/18 04:48:46;;;;;;;11.30;4.63;;;4.50;99.90;;;;;;5073337;28;20029;-74
2021/03/18 04:51:12;;;;;;;8.65;3.63;;;4.40;99.90;;;;;;5074015;28;20028;-74
2021/03/18 04:53:39;;;;;;;18.27;3.53;;;4.40;99.90;;;;;;5073364;28;20595;-73
2021/03/18 04:56:08;;;;;;;19.52;4.85;;;4.30;99.90;;;;;;5069059;28;20051;-74
2021/03/18 04:58:37;;;;;;;14.68;3.80;;;4.30;99.90;;;;;;5071706;28;20120;-74
2021/03/18 05:01:04;;;;;;;7.97;3.58;;;4.20;99.90;;;;;;5072607;28;20052;-74
2021/03/18 05:03:33;;;;;;;7.47;3.90;;;4.10;99.90;;;;;;5070061;28;20093;-74
2021/03/18 05:06:00;;;;;;;12.25;4.00;;;4.10;99.90;;;;;;5069588;28;20097;-74
2021/03/18 05:08:27;;;;;;;10.02;3.80;;;4.10;99.90;;;;;;5073184;28;20021;-74
2021/03/18 05:10:54;;;;;;;13.67;4.47;;;4.10;99.90;;;;;;5067672;28;20059;-75
2021/03/18 05:13:20;;;;;;;13.45;3.00;;;4.10;99.90;;;;;;5071436;28;20048;-75
2021/03/18 05:15:46;;;;;;;8.73;3.67;;;4.10;99.90;;;;;;5071832;28;20021;-75
2021/03/18 05:18:14;;;;;;;12.05;3.05;;;4.10;99.90;;;;;;5071361;28;20035;-75
2021/03/18 05:20:44;;;;;;;8.70;3.78;;;4.10;99.90;;;;;;5067317;28;20032;-75
2021/03/18 05:23:12;;;;;;;10.90;3.78;;;4.10;99.90;;;;;;5076748;28;20108;-74
2021/03/18 05:25:38;;;;;;;11.63;3.80;;;4.10;99.90;;;;;;5077321;28;20467;-75
2021/03/18 05:28:04;;;;;;;8.93;3.78;;;4.20;99.90;;;;;;5084571;28;20051;-75
2021/03/18 05:30:32;;;;;;;10.52;4.00;;;4.30;99.90;;;;;;5082571;28;20032;-74
2021/03/18 05:32:59;;;;;;;17.08;4.25;;;4.40;99.90;;;;;;5078007;28;20053;-75
2021/03/18 05:35:25;;;;;;;10.40;3.35;;;4.40;99.90;;;;;;5078263;28;20035;-75
2021/03/18 05:37:51;;;;;;;10.02;3.80;;;4.50;99.90;;;;;;5077122;28;20107;-75
2021/03/18 05:40:17;;;;;;;15.68;4.30;;;4.50;99.90;;;;;;5074740;28;20373;-74
2021/03/18 05:42:43;;;;;;;17.77;4.20;;;4.60;99.90;;;;;;5071965;28;20531;-74
2021/03/18 05:45:11;;;;;;;10.90;4.63;;;4.60;99.90;;;;;;5071634;28;20024;-75
2021/03/18 05:47:38;;;;;;;10.05;3.67;;;4.70;99.90;;;;;;5085101;28;20434;-74
2021/03/18 05:50:07;;;;;;;11.75;4.55;;;4.70;99.90;;;;;;5069875;28;20032;-75
2021/03/18 05:52:34;;;;;;;13.27;4.00;;;4.80;99.90;;;;;;5070326;28;20048;-76
2021/03/18 05:55:00;;;;;;;15.60;4.13;;;4.80;99.90;;;;;;5072437;28;20024;-75
2021/03/18 05:57:26;;;;;;;21.67;4.40;;;4.90;99.90;;;;;;5072460;28;20031;-74
2021/03/18 05:59:53;;;;;;;17.42;4.50;;;4.90;99.90;;;;;;5070935;28;20568;-75
2021/03/18 06:02:19;;;;;;;17.35;4.40;;;5.00;99.90;;;;;;5072291;28;20028;-74
2021/03/18 06:04:45;;;;;;;18.25;5.20;;;5.00;99.90;;;;;;5071484;28;20029;-74
2021/03/18 06:07:12;;;;;;;15.73;4.10;;;4.90;99.90;;;;;;5072889;28;20031;-74
2021/03/18 06:09:37;;;;;;;8.20;4.22;;;4.90;99.90;;;;;;5071737;28;20024;-73
2021/03/18 06:12:04;;;;;;;8.27;4.50;;;4.90;99.90;;;;;;5071326;28;20481;-75
2021/03/18 06:14:30;;;;;;;10.95;3.83;;;5.00;99.90;;;;;;5072747;28;20029;-76
2021/03/18 06:16:58;;;;;;;11.13;3.35;;;5.10;99.90;;;;;;5070721;28;20021;-74
2021/03/18 06:19:24;;;;;;;12.07;3.53;;;5.10;99.90;;;;;;5071394;28;20024;-74
2021/03/18 06:21:52;;;;;;;13.68;4.13;;;5.10;99.90;;;;;;5070681;28;20016;-74
2021/03/18 06:24:19;;;;;;;6.10;3.05;;;5.10;99.90;;;;;;5071282;28;20035;-74
2021/03/18 06:26:45;;;;;;;9.70;3.08;;;5.10;99.90;;;;;;5071842;28;20423;-74
2021/03/18 06:29:31;;;;;;;11.75;3.70;;;5.20;99.90;;;;;;5070841;28;20040;-74
2021/03/18 06:32:12;;;;;;;16.95;5.40;;;5.20;99.90;;;;;;5072387;28;20077;-75
2021/03/18 06:34:40;;;;;;;8.10;3.78;;;5.20;99.90;;;;;;5070105;28;20040;-74
2021/03/18 06:37:32;;;;;;;14.80;3.28;;;5.30;99.90;;;;;;5071187;28;20469;-74
2021/03/18 06:40:18;;;;;;;12.57;3.20;;;5.30;99.90;;;;;;5070453;28;20427;-75
2021/03/18 06:42:57;;;;;;;14.25;3.33;;;5.40;99.90;;;;;;5070980;28;20032;-75
2021/03/18 06:45:32;;;;;;;14.85;4.43;;;5.40;99.90;;;;;;5071261;28;20106;-74
2021/03/18 06:48:06;;;;;;;13.35;3.60;;;5.40;99.90;;;;;;5072644;28;20082;-75
2021/03/18 06:50:43;;;;;;;16.75;3.83;;;5.40;99.90;;;;;;5070507;28;20476;-75
2021/03/18 06:53:28;;;;;;;12.98;3.13;;;5.50;99.90;;;;;;5075475;28;20032;-74
2021/03/18 06:55:54;;;;;;;14.90;3.38;;;5.60;99.90;;;;;;5066731;28;20483;-74
2021/03/18 06:58:22;;;;;;;13.23;4.40;;;5.60;99.90;;;;;;5074606;28;20100;-75
2021/03/18 07:01:06;;;;;;;20.35;3.75;;;5.60;99.90;;;;;;5069120;28;20021;-74
2021/03/18 07:03:36;;;;;;;17.02;3.15;;;5.70;99.90;;;;;;5090875;28;20036;-74
2021/03/18 07:06:08;;;;;;;15.55;3.95;;;5.80;99.90;;;;;;5079717;28;20453;-74
2021/03/18 07:08:39;;;;;;;19.88;4.70;;;5.90;99.90;;;;;;5080802;28;20016;-74
2021/03/18 07:11:22;;;;;;;15.88;4.45;;;5.90;99.90;;;;;;5082561;28;20040;-74
2021/03/18 07:13:50;;;;;;;9.38;2.92;;;6.00;99.90;;;;;;5080130;28;20126;-75
2021/03/18 07:16:16;;;;;;;14.70;4.07;;;6.00;99.90;;;;;;5079494;28;20024;-74
2021/03/18 07:18:53;;;;;;;11.23;3.60;;;6.10;99.90;;;;;;5079432;28;20035;-74
2021/03/18 07:21:19;;;;;;;14.93;4.13;;;6.20;99.90;;;;;;5075821;28;20105;-75
2021/03/18 07:23:47;;;;;;;20.13;4.43;;;6.30;99.90;;;;;;5075146;28;20025;-75
2021/03/18 07:26:24;;;;;;;15.88;4.40;;;6.40;99.90;;;;;;5070321;28;20512;-75
2021/03/18 07:29:11;;;;;;;14.23;3.88;;;6.50;99.90;;;;;;5075782;28;20095;-75
2021/03/18 07:31:37;;;;;;;16.57;3.80;;;6.60;99.90;;;;;;5072990;28;20028;-75
2021/03/18 07:34:04;;;;;;;22.65;4.43;;;6.80;99.90;;;;;;5074385;28;20047;-74
2021/03/18 07:36:30;;;;;;;16.88;4.20;;;6.90;99.90;;;;;;5073816;28;20103;-74
2021/03/18 07:38:56;;;;;;;24.95;5.03;;;7.00;99.90;;;;;;5075280;28;20071;-75
2021/03/18 07:41:23;;;;;;;17.77;4.22;;;7.10;99.90;;;;;;5074511;28;20078;-74
2021/03/18 07:43:49;;;;;;;17.17;4.47;;;7.10;99.90;;;;;;5073762;28;20032;-74
2021/03/18 07:46:17;;;;;;;27.20;4.35;;;7.00;99.90;;;;;;5073820;28;20037;-74
2021/03/18 07:49:24;;;;;;;31.20;6.35;;;7.00;99.90;;;;;;5074092;28;20029;-75
2021/03/18 07:51:53;;;;;;;23.90;4.55;;;7.00;99.90;;;;;;5056043;28;20036;-74
2021/03/18 07:54:21;;;;;;;19.42;4.93;;;7.00;99.90;;;;;;5069607;28;20385;-75
2021/03/18 07:56:48;;;;;;;24.60;4.40;;;7.00;99.90;;;;;;5068784;28;20104;-74
2021/03/18 07:59:14;;;;;;;19.35;4.28;;;7.20;99.90;;;;;;5063795;28;20035;-75
2021/03/18 08:01:41;;;;;;;20.63;5.57;;;7.10;99.90;;;;;;5063029;28;20066;-76
2021/03/18 08:04:10;;;;;;;26.98;5.00;;;7.10;99.90;;;;;;5070058;28;20021;-74
2021/03/18 08:06:41;;;;;;;21.88;5.70;;;7.10;99.90;;;;;;5065718;28;20533;-75
2021/03/18 08:09:09;;;;;;;21.35;4.55;;;7.10;99.90;;;;;;5084240;28;20067;-75
2021/03/18 08:11:36;;;;;;;22.45;4.65;;;7.00;99.90;;;;;;5075204;28;20074;-75
2021/03/18 08:14:12;;;;;;;17.40;4.30;;;7.10;99.90;;;;;;5074096;28;20032;-76
2021/03/18 08:16:39;;;;;;;27.42;4.60;;;7.20;99.90;;;;;;5065760;28;20017;-76
2021/03/18 08:19:10;;;;;;;28.02;4.65;;;7.40;99.90;;;;;;5079739;28;20047;-75
2021/03/18 08:21:41;;;;;;;32.95;4.55;;;7.50;99.90;;;;;;5082826;28;20119;-75
2021/03/18 08:24:11;;;;;;;30.58;5.80;;;7.60;99.90;;;;;;5076967;28;20044;-75
2021/03/18 08:26:55;;;;;;;25.48;4.85;;;7.50;99.90;;;;;;5077440;28;20082;-75
2021/03/18 08:29:45;;;;;;;32.72;4.65;;;7.60;99.90;;;;;;5077508;28;20028;-75
2021/03/18 08:32:28;;;;;;;24.13;4.35;;;7.40;99.90;;;;;;5079179;28;20090;-76
2021/03/18 08:34:59;;;;;;;33.58;4.78;;;7.40;99.90;;;;;;5073446;28;20132;-75
2021/03/18 08:37:35;;;;;;;23.92;5.13;;;7.60;99.90;;;;;;5073020;28;20538;-74
2021/03/18 08:40:09;;;;;;;28.50;6.65;;;7.70;99.90;;;;;;5076393;28;20047;-74
2021/03/18 08:42:38;;;;;;;29.65;4.85;;;7.70;99.90;;;;;;5078349;28;20070;-74
2021/03/18 08:45:07;;;;;;;27.25;5.60;;;7.60;99.90;;;;;;5078972;28;20082;-75
2021/03/18 08:50:29;;;;;;;28.23;4.22;;;7.40;99.90;;;;;;5070859;28;20039;-75
2021/03/18 08:52:56;;;;;;;15.80;4.63;;;7.40;99.90;;;;;;5061196;28;20478;-74
2021/03/18 08:55:38;;;;;;;28.23;4.90;;;7.40;99.90;;;;;;5072757;28;20048;-74
2021/03/18 08:58:05;;;;;;;27.77;4.22;;;7.50;99.90;;;;;;5066084;28;20028;-75
2021/03/18 09:00:32;;;;;;;11.63;3.20;;;7.60;99.90;;;;;;5071400;28;20442;-74
2021/03/18 09:02:58;;;;;;;27.42;6.20;;;7.60;99.90;;;;;;5073716;28;20036;-76
2021/03/18 09:05:24;;;;;;;23.48;4.72;;;7.70;99.90;;;;;;5069257;28;20024;-75
2021/03/18 09:08:01;;;;;;;27.70;5.07;;;7.80;99.90;;;;;;5062680;28;20032;-75
2021/03/18 09:10:31;;;;;;;23.37;5.47;;;7.90;99.90;;;;;;5073488;28;20028;-77
2021/03/18 09:13:02;;;;;;;32.80;4.97;;;8.00;99.90;;;;;;5065453;28;20135;-76
2021/03/18 09:15:37;;;;;;;16.70;5.15;;;8.10;99.90;;;;;;5069696;28;20388;-77
2021/03/18 09:18:31;;;;;;;25.17;5.00;;;8.20;99.90;;;;;;5070358;28;20027;-76
2021/03/18 09:21:10;;;;;;;31.33;5.32;;;8.20;99.90;;;;;;5068597;28;20251;-75
2021/03/18 09:23:41;;;;;;;25.08;4.90;;;8.30;99.90;;;;;;5073346;28;20043;-76
2021/03/18 09:26:10;;;;;;;24.98;5.22;;;8.20;99.90;;;;;;5070281;28;20082;-76
2021/03/18 09:28:38;;;;;;;21.05;5.88;;;8.30;99.90;;;;;;5070492;28;20067;-76
2021/03/18 09:31:06;;;;;;;21.63;5.07;;;8.30;99.90;;;;;;5073368;28;20028;-76
2021/03/18 09:33:37;;;;;;;20.80;4.22;;;8.40;99.90;;;;;;5067730;28;20037;-75
2021/03/18 09:36:20;;;;;;;24.13;4.82;;;8.20;99.90;;;;;;5072599;28;20028;-75
2021/03/18 09:38:58;;;;;;;14.20;3.78;;;8.30;99.90;;;;;;5070478;28;20024;-75
2021/03/18 09:41:28;;;;;;;16.33;3.97;;;8.40;99.90;;;;;;5071731;28;20070;-75
2021/03/18 09:44:04;;;;;;;23.50;4.07;;;8.50;99.90;;;;;;5072844;28;20421;-75
2021/03/18 09:46:31;;;;;;;18.75;4.97;;;8.50;99.90;;;;;;5072822;28;20477;-75
2021/03/18 09:48:56;;;;;;;19.45;4.13;;;8.40;99.90;;;;;;5070219;28;20058;-75
2021/03/18 09:51:22;;;;;;;21.25;3.53;;;8.30;99.90;;;;;;5071210;28;20127;-76
2021/03/18 09:53:57;;;;;;;17.50;4.82;;;8.20;99.90;;;;;;5070967;28;20032;-76
2021/03/18 09:56:23;;;;;;;15.57;3.65;;;8.30;99.90;;;;;;5071726;28;20484;-75
2021/03/18 09:58:49;;;;;;;17.90;3.78;;;8.20;99.90;;;;;;5073053;28;20377;-75
2021/03/18 10:01:24;;;;;;;11.40;2.67;;;8.20;99.90;;;;;;5071569;28;20028;-76
2021/03/18 10:03:52;;;;;;;12.57;3.30;;;8.30;99.90;;;;;;5064281;28;20500;-76
2021/03/18 10:06:24;;;;;;;15.18;3.28;;;8.40;99.90;;;;;;5071382;28;20055;-75
2021/03/18 10:08:50;;;;;;;20.27;3.33;;;8.40;99.90;;;;;;5067388;28;20547;-76
2021/03/18 10:11:16;;;;;;;19.05;3.72;;;8.60;99.90;;;;;;5071258;28;20127;-76
2021/03/18 10:13:43;;;;;;;6.65;2.70;;;8.70;99.90;;;;;;5072221;28;20668;-75
2021/03/18 10:16:09;;;;;;;21.00;5.10;;;8.80;99.90;;;;;;5071539;28;20428;-75
2021/03/18 10:18:37;;;;;;;21.38;3.88;;;8.90;99.90;;;;;;5070640;28;20024;-75
2021/03/18 10:21:04;;;;;;;22.80;2.83;;;8.90;99.90;;;;;;5068119;28;20056;-75
2021/03/18 10:23:30;;;;;;;16.40;4.47;;;8.80;99.90;;;;;;5072461;28;20100;-75
2021/03/18 10:25:56;;;;;;;19.77;3.20;;;8.60;99.90;;;;;;5074045;28;20112;-76
2021/03/18 10:28:24;;;;;;;14.27;2.92;;;8.60;99.90;;;;;;5076899;28;20441;-75
2021/03/18 10:30:50;;;;;;;19.88;3.65;;;8.60;99.90;;;;;;5075012;28;20040;-75
2021/03/18 10:33:21;;;;;;;14.88;3.05;;;8.60;99.90;;;;;;5079583;28;20076;-75
2021/03/18 10:35:53;;;;;;;26.52;3.13;;;8.60;99.90;;;;;;5075628;28;20029;-76
2021/03/18 10:38:38;;;;;;;22.05;3.50;;;8.50;99.90;;;;;;5074203;28;20025;-76
2021/03/18 10:41:10;;;;;;;15.10;3.45;;;8.50;99.90;;;;;;5065472;28;20468;-76
2021/03/18 10:43:54;;;;;;;9.43;2.33;;;8.40;99.90;;;;;;5072139;28;20484;-76
2021/03/18 10:46:36;;;;;;;15.38;3.38;;;8.30;99.90;;;;;;5071237;28;20055;-76
2021/03/18 10:49:06;;;;;;;20.85;3.05;;;8.20;99.90;;;;;;5067653;28;20075;-74
2021/03/18 10:51:45;;;;;;;12.02;3.55;;;8.30;99.90;;;;;;5070713;28;20052;-74
2021/03/18 10:54:22;;;;;;;15.18;3.78;;;8.30;99.90;;;;;;5066954;28;20103;-73
2021/03/18 10:56:50;;;;;;;15.15;2.60;;;8.40;99.90;;;;;;5062199;28;20036;-73
2021/03/18 10:59:21;;;;;;;21.92;3.92;;;8.60;99.90;;;;;;5080394;28;20079;-75
2021/03/18 11:02:02;;;;;;;13.60;2.45;;;8.80;99.90;;;;;;5089475;28;20059;-76
2021/03/18 11:04:28;;;;;;;14.27;3.00;;;9.00;99.90;;;;;;5071266;28;20480;-75
2021/03/18 11:06:53;;;;;;;14.95;3.90;;;9.40;99.90;;;;;;5072914;28;20025;-75
2021/03/18 11:09:19;;;;;;;12.07;2.85;;;9.60;99.90;;;;;;5070112;28;20070;-75
2021/03/18 11:11:57;;;;;;;18.00;2.95;;;9.90;99.90;;;;;;5070944;28;20021;-74
2021/03/18 11:14:23;;;;;;;13.93;3.55;;;10.00;99.90;;;;;;5072385;28;20112;-75
2021/03/18 11:17:05;;;;;;;19.17;3.75;;;9.90;99.90;;;;;;5072938;28;20385;-75
2021/03/18 11:19:31;;;;;;;12.20;3.40;;;9.70;99.90;;;;;;5072093;28;20025;-76
2021/03/18 11:22:02;;;;;;;11.77;4.28;;;9.80;99.90;;;;;;5071214;28;20070;-76
2021/03/18 11:24:29;;;;;;;12.32;3.08;;;9.70;99.90;;;;;;5065593;28;20041;-77
2021/03/18 11:27:03;;;;;;;11.50;3.17;;;9.60;99.90;;;;;;5070817;28;20381;-76
2021/03/18 11:29:34;;;;;;;14.23;4.57;;;9.70;99.90;;;;;;5071195;28;20126;-75
2021/03/18 11:32:03;;;;;;;17.40;3.45;;;9.50;99.90;;;;;;5071123;28;20031;-76
2021/03/18 11:34:34;;;;;;;13.27;3.00;;;9.70;99.90;;;;;;5072034;28;20041;-75
2021/03/18 11:37:04;;;;;;;14.30;3.80;;;9.90;99.90;;;;;;5068453;28;20085;-74
2021/03/18 11:39:33;;;;;;;9.57;3.50;;;9.80;99.90;;;;;;5075317;28;20021;-75
2021/03/18 11:42:00;;;;;;;12.32;3.38;;;9.70;99.90;;;;;;5073516;28;20021;-75
2021/03/18 11:44:29;;;;;;;15.57;3.37;;;9.80;99.90;;;;;;5078306;28;20056;-74
2021/03/18 11:46:59;;;;;;;11.52;2.63;;;9.90;99.90;;;;;;5072952;28;20364;-76
2021/03/18 11:49:25;;;;;;;12.43;3.95;;;10.20;99.90;;;;;;5073028;28;20043;-74
2021/03/18 11:51:51;;;;;;;22.05;3.03;;;10.10;99.90;;;;;;5069467;28;20025;-74
2021/03/18 11:54:16;;;;;;;14.30;3.05;;;10.20;99.90;;;;;;5070881;28;20108;-74
2021/03/18 11:56:42;;;;;;;13.75;2.58;;;10.20;99.90;;;;;;5074418;28;20025;-74
2021/03/18 11:59:08;;;;;;;16.02;2.70;;;10.20;99.90;;;;;;5073185;28;20027;-74
2021/03/18 12:01:34;;;;;;;17.35;2.53;;;10.20;99.90;;;;;;5075535;28;20097;-74
2021/03/18 12:04:00;;;;;;;15.05;3.00;;;10.20;99.90;;;;;;5075402;28;20033;-75
2021/03/18 12:06:25;;;;;;;18.60;2.85;;;10.00;99.90;;;;;;5073993;28;20384;-74
2021/03/18 12:08:51;;;;;;;13.20;2.22;;;10.10;99.90;;;;;;5074527;28;20074;-75
2021/03/18 12:11:17;;;;;;;10.93;2.63;;;10.10;99.90;;;;;;5078714;28;20036;-75
2021/03/18 12:13:42;;;;;;;17.17;2.65;;;10.10;99.90;;;;;;5082788;28;20063;-75
2021/03/18 12:16:08;;;;;;;11.90;2.03;;;10.00;99.90;;;;;;5081605;28;20037;-74
2021/03/18 12:18:33;;;;;;;11.95;2.13;;;10.20;99.90;;;;;;5070585;28;20398;-75
2021/03/18 12:20:59;;;;;;;18.33;2.83;;;10.30;99.90;;;;;;5078228;28;20025;-75
2021/03/18 12:23:26;;;;;;;14.00;2.30;;;10.30;99.90;;;;;;5075586;28;20107;-74
2021/03/18 12:25:51;;;;;;;11.25;2.08;;;10.20;99.90;;;;;;5073620;28;20048;-74
2021/03/18 12:28:17;;;;;;;8.25;1.77;;;10.20;99.90;;;;;;5075656;28;20028;-73
2021/03/18 12:30:46;;;;;;;22.45;2.97;;;10.20;99.90;;;;;;5073576;28;20027;-74
2021/03/18 12:33:12;;;;;;;11.00;1.85;;;10.20;99.90;;;;;;5075314;28;20041;-74
2021/03/18 12:35:39;;;;;;;13.23;1.77;;;10.20;99.90;;;;;;5073425;28;20101;-76
2021/03/18 12:38:04;;;;;;;9.60;1.60;;;10.10;99.90;;;;;;5075240;28;20146;-75
2021/03/18 12:40:30;;;;;;;8.27;1.83;;;10.00;99.90;;;;;;5072873;28;20056;-75
2021/03/18 12:42:56;;;;;;;14.05;3.33;;;9.90;99.90;;;;;;5074617;28;20374;-75
2021/03/18 12:45:23;;;;;;;19.48;3.58;;;9.80;99.90;;;;;;5073149;28;20025;-75
2021/03/18 12:47:49;;;;;;;21.85;2.53;;;9.70;99.90;;;;;;5074675;28;20036;-75
2021/03/18 12:50:18;;;;;;;15.65;2.72;;;9.70;99.90;;;;;;5082706;28;20031;-75
2021/03/18 12:52:45;;;;;;;14.65;2.63;;;9.30;99.90;;;;;;5076843;28;20037;-76
2021/03/18 12:55:12;;;;;;;23.02;2.55;;;9.20;99.90;;;;;;5072822;28;20060;-75
2021/03/18 12:57:40;;;;;;;17.77;2.35;;;8.70;99.90;;;;;;5074394;28;20437;-76
2021/03/18 13:00:07;;;;;;;14.55;2.70;;;8.50;99.90;;;;;;5072683;28;20364;-76
2021/03/18 13:02:32;;;;;;;17.77;2.07;;;8.30;99.90;;;;;;5074360;28;20028;-74
2021/03/18 13:04:58;;;;;;;9.15;1.77;;;8.30;99.90;;;;;;5072928;28;20032;-75